Terminal Aerodrome Forecast
Issued by NWS

Home | Current Version | Previous Version | Text Only | Print | Product List | Glossary On
Versions: 1 2 3 4 5 6 7 8 9 10 11 12 13 14 15 16 17 18 19
000
FTUS43 KGRR 281300 AAA
TAFJXN
TAF AMD
KJXN 281337Z 2814/2912 34011KT P6SM BKN015
     FM281530 33012G20KT P6SM BKN035
     FM290100 30006KT P6SM BKN050=

USA.gov is the U.S. government's official web portal to all federal, state and local government web resources and services.